Time;durP1;ratioP1;P1;durP2;ratioP2;P2;SDS_P1;SDS_P2;PMS_P1;PMS_P2;Temp;Humidity;BMP_temperature;BMP_pressure;BME280_temperature;BME280_humidity;BME280_pressure;Samples;Min_cycle;Max_cycle;Signal;HPM_P1;HPM_P2
2022/06/21 00:02:22;;;;;;;9.73;4.65;;;;;;;23.44;62.58;99080.59;7711119;32;40846;-73
2022/06/21 00:06:39;;;;;;;8.38;4.28;;;;;;;23.54;61.50;99081.91;7711192;32;38368;-74
2022/06/21 00:10:57;;;;;;;11.35;4.80;;;;;;;23.41;61.63;99075.75;7711210;32;37882;-74
2022/06/21 00:15:14;;;;;;;6.28;4.00;;;;;;;23.65;60.16;99095.19;7711341;32;39181;-74
2022/06/21 00:19:30;;;;;;;9.35;4.65;;;;;;;23.60;60.09;99094.31;7711118;32;39707;-73
2022/06/21 00:23:47;;;;;;;13.95;4.55;;;;;;;23.59;59.82;99116.94;7710362;32;38590;-73
2022/06/21 00:28:03;;;;;;;5.90;4.32;;;;;;;22.94;62.13;99129.00;7710994;32;38386;-72
2022/06/21 00:32:20;;;;;;;8.70;4.25;;;;;;;22.74;63.20;99117.16;7710662;32;40359;-73
2022/06/21 00:36:37;;;;;;;6.47;4.43;;;;;;;22.87;62.72;99108.28;7697336;32;41524;-73
2022/06/21 00:40:55;;;;;;;12.25;4.72;;;;;;;23.01;62.04;99112.47;7710778;32;37793;-72
2022/06/21 00:45:34;;;;;;;9.85;4.55;;;;;;;22.85;61.71;99130.06;7710733;32;37075;-73
2022/06/21 00:50:10;;;;;;;10.38;4.57;;;;;;;22.75;60.67;99135.44;7710536;32;39439;-73
2022/06/21 00:54:43;;;;;;;7.75;4.10;;;;;;;22.42;61.43;99131.25;7698278;32;40061;-73
2022/06/21 00:59:22;;;;;;;6.78;4.03;;;;;;;22.43;61.71;99136.44;7710961;32;38563;-73
2022/06/21 01:03:45;;;;;;;7.45;3.95;;;;;;;22.31;61.27;99142.16;7710433;32;37888;-73
2022/06/21 01:08:01;;;;;;;7.15;3.95;;;;;;;21.76;63.39;99151.28;7710278;32;40104;-74
2022/06/21 01:12:34;;;;;;;10.70;3.97;;;;;;;22.06;62.39;99163.81;7710088;32;40880;-74
2022/06/21 01:16:50;;;;;;;10.80;4.40;;;;;;;21.91;62.70;99163.53;7709955;32;37831;-74
2022/06/21 01:21:09;;;;;;;7.05;4.10;;;;;;;21.57;63.83;99174.25;7710003;32;37130;-74
2022/06/21 01:25:34;;;;;;;8.13;4.20;;;;;;;21.54;63.78;99166.66;7696389;32;38687;-73
2022/06/21 01:29:50;;;;;;;9.50;4.30;;;;;;;21.55;64.05;99175.78;7709645;32;40106;-74
2022/06/21 01:34:18;;;;;;;7.95;4.57;;;;;;;21.49;63.76;99180.81;7709551;32;37808;-74
2022/06/21 01:38:40;;;;;;;9.38;4.40;;;;;;;21.30;64.41;99184.28;7712550;32;37048;-73
2022/06/21 01:43:03;;;;;;;9.95;4.85;;;;;;;21.42;63.93;99188.94;7713107;32;39688;-72
2022/06/21 01:47:22;;;;;;;;;;;;;;;21.59;62.67;99189.72;7713329;32;39929;-73
2022/06/21 01:51:49;;;;;;;7.97;4.25;;;;;;;21.48;62.85;99190.28;7712827;32;36167;-72
2022/06/21 01:56:10;;;;;;;13.15;5.47;;;;;;;21.13;63.55;99192.97;7700246;32;38085;-73
2022/06/21 02:00:27;;;;;;;10.00;5.25;;;;;;;20.90;64.44;99201.88;7699498;32;39154;-73
2022/06/21 02:04:51;;;;;;;8.23;5.05;;;;;;;20.83;65.06;99212.75;7712637;32;40761;-73
2022/06/21 02:09:16;;;;;;;10.90;5.00;;;;;;;21.03;63.98;99205.38;7712669;32;38388;-72
2022/06/21 02:13:40;;;;;;;9.98;5.40;;;;;;;21.14;63.92;99208.41;7699738;32;37218;-73
2022/06/21 02:17:58;;;;;;;9.32;5.25;;;;;;;21.21;63.26;99208.59;7712074;32;40153;-72
2022/06/21 02:22:20;;;;;;;7.90;5.10;;;;;;;21.10;63.66;99207.53;7711705;32;38596;-72
2022/06/21 02:26:38;;;;;;;7.65;4.45;;;;;;;20.52;65.35;99205.94;7712426;32;38538;-73
2022/06/21 02:30:54;;;;;;;9.95;5.57;;;;;;;20.93;63.90;99200.37;7698499;32;37140;-73
2022/06/21 02:35:25;;;;;;;11.25;5.62;;;;;;;20.81;63.60;99217.84;7712224;32;39434;-73
2022/06/21 02:39:43;;;;;;;7.70;5.00;;;;;;;20.48;64.47;99220.88;7712047;32;39619;-73
2022/06/21 02:44:18;;;;;;;10.52;5.50;;;;;;;20.86;62.89;99217.59;7698580;32;37953;-72
2022/06/21 02:48:39;;;;;;;8.48;4.97;;;;;;;20.76;62.71;99226.41;7699385;32;37139;-74
2022/06/21 02:52:56;;;;;;;8.95;5.60;;;;;;;20.60;63.46;99232.69;7684269;32;39427;-72
2022/06/21 02:57:15;;;;;;;12.77;5.30;;;;;;;20.11;64.14;99241.16;7685359;32;40889;-73
2022/06/21 03:01:54;;;;;;;10.82;5.55;;;;;;;20.30;63.46;99239.72;7684939;32;37939;-73
2022/06/21 03:06:13;;;;;;;10.30;5.30;;;;;;;19.98;63.90;99258.94;7685356;32;37085;-77
2022/06/21 03:10:38;;;;;;;10.65;5.15;;;;;;;19.84;64.22;99264.81;7684078;32;40372;-74
2022/06/21 03:14:57;;;;;;;7.78;4.93;;;;;;;19.96;63.18;99250.97;7685155;32;40753;-74
2022/06/21 03:19:24;;;;;;;8.93;4.43;;;;;;;19.74;63.58;99257.78;7683440;32;38123;-74
2022/06/21 03:23:42;;;;;;;7.60;4.57;;;;;;;19.64;63.50;99261.78;7685015;32;36860;-74
2022/06/21 03:28:00;;;;;;;8.63;4.68;;;;;;;19.56;63.62;99276.53;7685044;32;39452;-73
2022/06/21 03:32:16;;;;;;;10.50;4.60;;;;;;;19.10;64.84;99284.06;7673392;32;40810;-74
2022/06/21 03:36:33;;;;;;;7.50;3.95;;;;;;;18.97;64.90;99274.91;7684913;32;37838;-73
2022/06/21 03:45:31;;;;;;;6.80;3.90;;;;;;;19.52;61.61;99279.19;7685076;32;40287;-73
2022/06/21 03:50:05;;;;;;;7.85;3.87;;;;;;;19.45;61.06;99280.91;7685320;32;39986;-73
2022/06/21 03:54:37;;;;;;;9.13;3.60;;;;;;;19.56;60.50;99281.25;7698525;32;37912;-73
2022/06/21 03:59:08;;;;;;;3.60;2.50;;;;;;;19.11;60.73;99282.94;7710467;32;36714;-75
2022/06/21 04:03:35;;;;;;;4.35;2.80;;;;;;;18.73;61.00;99290.25;7711108;32;39293;-74
2022/06/21 04:07:57;;;;;;;6.75;2.72;;;;;;;18.64;61.27;99303.28;7711318;32;39975;-74
2022/06/21 04:12:26;;;;;;;6.72;2.30;;;;;;;19.07;59.72;99299.34;7710463;32;37953;-74
2022/06/21 04:16:57;;;;;;;4.95;2.50;;;;;;;18.67;59.71;99308.16;7698254;32;37108;-73
2022/06/21 04:21:22;;;;;;;3.70;2.22;;;;;;;18.96;58.75;99298.19;7710685;32;40652;-74
2022/06/21 04:25:53;;;;;;;4.72;2.47;;;;;;;18.69;59.07;99314.13;7710795;32;39784;-76
2022/06/21 04:30:17;;;;;;;3.25;2.03;;;;;;;18.60;58.69;99309.84;7698450;32;38646;-81
2022/06/21 04:34:36;;;;;;;3.47;2.20;;;;;;;18.58;57.99;99310.19;7698266;32;37346;-72
2022/06/21 04:39:09;;;;;;;3.40;2.12;;;;;;;18.96;57.63;99314.75;7696648;32;40157;-73
2022/06/21 04:43:44;;;;;;;4.60;2.55;;;;;;;18.50;58.26;99322.87;7710952;32;40041;-74
2022/06/21 04:48:03;;;;;;;3.92;2.25;;;;;;;18.66;58.12;99312.06;7710554;32;38082;-74
2022/06/21 04:52:31;;;;;;;4.45;2.37;;;;;;;18.93;57.75;99310.69;7710939;32;38254;-73
2022/06/21 04:57:02;;;;;;;3.17;1.67;;;;;;;18.88;57.29;99304.59;7710735;32;39290;-74
2022/06/21 05:01:35;;;;;;;3.65;1.50;;;;;;;18.75;56.21;99325.81;7710061;32;40766;-75
2022/06/21 05:05:51;;;;;;;4.22;1.87;;;;;;;18.37;56.13;99316.50;7698681;32;37981;-74
2022/06/21 05:10:13;;;;;;;2.78;1.50;;;;;;;18.59;54.41;99322.81;7710127;32;37058;-75
2022/06/21 05:14:34;;;;;;;1.60;1.50;;;;;;;18.64;52.07;99333.66;7710462;32;39779;-75
2022/06/21 05:19:03;;;;;;;1.60;1.30;;;;;;;18.49;50.93;99342.53;7710032;32;40790;-75
2022/06/21 05:23:21;;;;;;;1.65;1.42;;;;;;;18.47;49.93;99347.59;7697650;32;38099;-74
2022/06/21 05:27:51;;;;;;;2.20;1.23;;;;;;;18.90;48.68;99354.75;7708907;32;37811;-74
2022/06/21 05:32:15;;;;;;;1.55;1.45;;;;;;;19.09;48.87;99355.09;7696645;32;39150;-73
2022/06/21 05:36:49;;;;;;;2.20;1.20;;;;;;;19.03;48.20;99366.69;7696176;32;40020;-74
2022/06/21 05:41:29;;;;;;;1.17;1.08;;;;;;;19.04;46.51;99376.56;7709609;32;38218;-75
2022/06/21 05:45:57;;;;;;;2.08;0.93;;;;;;;18.76;46.67;99377.94;7698102;32;37740;-74
2022/06/21 05:50:18;;;;;;;2.83;1.30;;;;;;;18.95;45.24;99380.25;7709232;32;38994;-74
2022/06/21 05:54:42;;;;;;;1.25;1.12;;;;;;;19.21;43.50;99365.34;7709011;32;39871;-77
2022/06/21 05:59:04;;;;;;;3.58;1.10;;;;;;;19.00;44.59;99370.91;7695563;32;38687;-77
2022/06/21 06:03:37;;;;;;;1.25;1.05;;;;;;;19.20;43.69;99365.72;7709165;32;37832;-76
2022/06/21 06:08:26;;;;;;;1.00;1.00;;;;;;;19.05;43.61;99376.25;7708777;32;39180;-76
2022/06/21 06:12:46;;;;;;;1.30;1.20;;;;;;;18.91;42.92;99373.75;7691725;32;39885;-76
2022/06/21 06:17:15;;;;;;;3.55;1.27;;;;;;;19.28;43.43;99386.91;7693796;32;37666;-76
2022/06/21 06:21:36;;;;;;;1.83;1.20;;;;;;;19.18;42.62;99381.81;7708709;32;37297;-76
2022/06/21 06:26:10;;;;;;;1.87;1.20;;;;;;;19.09;42.66;99385.47;7698840;32;40199;-77
2022/06/21 06:30:51;;;;;;;1.25;1.10;;;;;;;19.40;43.00;99375.91;7712217;32;39901;-76
2022/06/21 06:35:18;;;;;;;2.72;1.33;;;;;;;19.59;42.65;99380.09;7699733;32;38537;-76
2022/06/21 06:39:36;;;;;;;3.62;1.15;;;;;;;20.10;41.22;99383.44;7698776;32;37865;-77
2022/06/21 06:44:14;;;;;;;3.53;1.73;;;;;;;19.89;42.33;99389.06;7712164;32;39109;-76
2022/06/21 06:48:32;;;;;;;2.65;1.20;;;;;;;19.98;41.78;99397.25;7711826;32;39888;-73
2022/06/21 06:52:55;;;;;;;6.18;1.60;;;;;;;20.05;41.81;99395.53;7712003;32;36910;-74
2022/06/21 06:57:25;;;;;;;3.00;1.30;;;;;;;20.41;40.32;99401.41;7698506;32;37081;-77
2022/06/21 07:01:52;;;;;;;2.95;1.48;;;;;;;20.02;41.08;99398.16;7712122;32;40010;-76
2022/06/21 07:06:43;;;;;;;2.72;1.40;;;;;;;20.21;40.05;99406.72;7692896;32;39972;-76
2022/06/21 07:11:03;;;;;;;3.37;1.30;;;;;;;20.95;37.95;99412.16;7698821;32;38007;-76
2022/06/21 07:15:31;;;;;;;1.73;1.23;;;;;;;21.01;35.10;99410.78;7672066;32;37822;-75
2022/06/21 07:19:47;;;;;;;5.00;1.20;;;;;;;21.00;36.89;99427.75;7704458;32;39606;-75
2022/06/21 07:24:14;;;;;;;6.87;1.50;;;;;;;20.86;36.66;99425.38;7698317;32;40678;-75
2022/06/21 07:28:38;;;;;;;8.10;1.52;;;;;;;20.84;35.25;99432.44;7699341;32;38074;-76
2022/06/21 07:32:58;;;;;;;1.30;1.12;;;;;;;20.96;35.61;99427.66;7697590;32;36803;-74
2022/06/21 07:37:18;;;;;;;2.90;1.25;;;;;;;21.19;33.87;99429.87;7697851;32;39379;-77
2022/06/21 07:41:43;;;;;;;2.53;1.10;;;;;;;21.50;34.22;99431.19;7711528;32;41002;-75
2022/06/21 07:46:02;;;;;;;1.40;1.30;;;;;;;21.96;33.65;99430.81;7698431;32;38758;-75
2022/06/21 07:50:35;;;;;;;4.62;1.20;;;;;;;21.76;32.52;99434.25;7711561;32;37213;-75
2022/06/21 07:55:00;;;;;;;2.28;1.05;;;;;;;21.75;29.60;99448.50;7699708;32;40108;-75
2022/06/21 07:59:31;;;;;;;1.10;1.00;;;;;;;22.05;29.08;99440.56;7711472;32;39914;-75
2022/06/21 08:08:57;;;;;;;3.58;1.33;;;;;;;22.21;28.67;99448.88;7701988;32;37904;-75
2022/06/21 08:13:14;;;;;;;3.83;0.95;;;;;;;22.70;30.34;99450.50;7698898;32;39389;-75
2022/06/21 08:17:58;;;;;;;5.72;1.15;;;;;;;23.18;31.25;99455.91;7711229;32;40496;-75
2022/06/21 08:22:23;;;;;;;1.23;1.12;;;;;;;22.93;30.01;99455.38;7710936;32;37847;-76
2022/06/21 08:26:59;;;;;;;8.95;1.40;;;;;;;23.04;30.90;99450.81;7697889;32;36706;-75
2022/06/21 08:31:31;;;;;;;5.30;1.40;;;;;;;23.48;29.16;99442.25;7710495;32;39319;-75
2022/06/21 08:36:30;;;;;;;4.72;1.02;;;;;;;23.81;29.73;99443.69;7709781;32;39903;-76
2022/06/21 08:41:04;;;;;;;4.85;1.62;;;;;;;24.02;29.11;99446.03;7702695;32;37974;-75
2022/06/21 08:45:45;;;;;;;4.32;1.08;;;;;;;23.87;30.90;99446.97;7708972;32;37905;-76
2022/06/21 08:50:13;;;;;;;2.62;1.37;;;;;;;24.18;29.70;99448.69;7709632;32;39000;-75
2022/06/21 08:54:47;;;;;;;2.50;1.12;;;;;;;23.60;28.69;99444.84;7710571;32;39660;-76
2022/06/21 08:59:22;;;;;;;2.25;1.10;;;;;;;23.98;28.92;99454.34;7710545;32;37738;-76
2022/06/21 09:03:52;;;;;;;5.40;1.30;;;;;;;24.20;29.31;99438.00;7710531;32;36995;-75
2022/06/21 09:08:18;;;;;;;0.93;0.80;;;;;;;23.96;28.81;99419.69;7697841;32;39417;-76
2022/06/21 09:12:42;;;;;;;1.62;1.00;;;;;;;23.84;29.46;99414.31;7696403;32;40779;-75
2022/06/21 09:17:20;;;;;;;15.65;1.35;;;;;;;24.12;27.62;99419.56;7696380;32;37811;-75
2022/06/21 09:21:52;;;;;;;2.17;1.00;;;;;;;24.12;27.01;99416.78;7710190;32;38041;-76
2022/06/21 09:26:27;;;;;;;4.93;1.12;;;;;;;24.02;27.59;99429.34;7697220;32;39242;-76
2022/06/21 09:30:56;;;;;;;3.28;1.10;;;;;;;23.20;27.37;99415.47;7698726;32;39883;-76
2022/06/21 09:35:18;;;;;;;2.65;1.40;;;;;;;23.90;27.78;99429.53;7697068;32;38571;-76
2022/06/21 09:39:45;;;;;;;1.17;0.70;;;;;;;23.53;27.49;99444.72;7683387;32;37776;-76
2022/06/21 09:44:11;;;;;;;6.97;1.10;;;;;;;23.70;25.56;99425.94;7709697;32;40183;-76
2022/06/21 09:48:38;;;;;;;8.32;1.10;;;;;;;24.06;25.83;99430.22;7709558;32;40266;-75
2022/06/21 09:53:31;;;;;;;8.20;1.45;;;;;;;24.05;26.56;99427.81;7708649;32;39244;-74
2022/06/21 09:58:29;;;;;;;2.58;1.10;;;;;;;24.51;26.64;99431.34;7710582;32;37839;-75
2022/06/21 10:02:58;;;;;;;4.00;0.80;;;;;;;25.32;25.53;99434.06;7603312;32;39913;-75
2022/06/21 10:07:28;;;;;;;6.18;1.00;;;;;;;25.49;27.38;99437.06;7669469;32;40634;-76
2022/06/21 10:12:05;;;;;;;4.15;1.00;;;;;;;25.30;24.84;99451.19;7712820;32;38784;-75
2022/06/21 10:16:30;;;;;;;1.05;0.70;;;;;;;25.05;24.24;99451.63;7712785;32;36777;-76
2022/06/21 10:20:57;;;;;;;5.60;0.80;;;;;;;24.25;25.31;99456.38;7711280;32;39415;-74
2022/06/21 10:25:29;;;;;;;1.35;0.77;;;;;;;24.59;24.37;99445.41;7699068;32;40962;-74
2022/06/21 10:29:56;;;;;;;5.78;1.23;;;;;;;24.50;23.66;99451.22;7712387;32;37938;-74
2022/06/21 10:34:24;;;;;;;1.10;0.88;;;;;;;24.26;25.77;99453.22;7712152;32;37040;-74
2022/06/21 10:38:55;;;;;;;1.45;0.70;;;;;;;24.71;25.76;99450.75;7712470;32;39988;-74
2022/06/21 10:43:37;;;;;;;2.80;0.85;;;;;;;23.92;24.20;99438.31;7699181;32;41259;-74
2022/06/21 10:48:37;;;;;;;2.87;0.85;;;;;;;24.70;25.68;99449.97;7711858;32;37880;-74
2022/06/21 10:52:56;;;;;;;2.67;0.90;;;;;;;24.66;23.64;99432.38;7712039;32;37355;-74
2022/06/21 10:57:43;;;;;;;0.98;0.88;;;;;;;25.22;23.38;99436.31;7703860;32;39178;-74
2022/06/21 11:02:26;;;;;;;4.35;1.25;;;;;;;25.96;24.11;99428.41;7709851;32;40017;-74
2022/06/21 11:07:13;;;;;;;1.90;1.10;;;;;;;26.18;23.75;99443.34;7698822;32;37881;-73
2022/06/21 11:11:45;;;;;;;1.73;0.90;;;;;;;26.39;22.84;99434.34;7711653;32;36645;-73
2022/06/21 11:16:05;;;;;;;1.45;0.90;;;;;;;26.89;23.96;99439.47;7711624;32;40179;-73
2022/06/21 11:20:34;;;;;;;2.42;1.15;;;;;;;27.18;22.66;99454.41;7711337;32;39964;-73
2022/06/21 11:24:57;;;;;;;8.93;1.33;;;;;;;26.75;23.98;99438.22;7698927;32;37972;-73
2022/06/21 11:30:06;;;;;;;4.55;2.03;;;;;;;27.29;23.24;99435.72;7711687;32;37095;-74
2022/06/21 11:35:01;;;;;;;2.15;1.35;;;;;;;27.67;22.90;99421.44;7659749;32;40115;-74
2022/06/21 11:39:41;;;;;;;2.90;1.87;;;;;;;27.35;22.47;99439.75;7662011;32;39987;-74
2022/06/21 11:44:12;;;;;;;2.90;1.62;;;;;;;27.59;22.51;99447.81;7682552;32;38033;-74
2022/06/21 11:48:43;;;;;;;4.55;0.82;;;;;;;27.64;21.60;99450.22;7681512;32;36905;-73
2022/06/21 11:53:13;;;;;;;2.97;1.10;;;;;;;27.24;21.14;99438.88;7681201;32;40108;-74
2022/06/21 11:57:57;;;;;;;2.75;1.98;;;;;;;27.55;22.10;99439.41;7681738;32;40051;-75
2022/06/21 12:02:25;;;;;;;3.30;1.42;;;;;;;28.24;22.70;99445.94;7671354;32;38395;-74
2022/06/21 12:07:03;;;;;;;6.87;1.10;;;;;;;28.25;20.86;99447.53;7671078;32;37218;-74
2022/06/21 12:11:33;;;;;;;1.80;1.00;;;;;;;28.30;20.30;99435.91;7684509;32;39363;-74
2022/06/21 12:16:17;;;;;;;2.78;0.95;;;;;;;28.17;20.88;99435.53;7684344;32;40941;-74
2022/06/21 12:20:48;;;;;;;5.45;1.30;;;;;;;28.36;20.38;99433.53;7683582;32;38750;-74
2022/06/21 12:25:05;;;;;;;1.83;1.25;;;;;;;28.48;20.36;99424.69;7672230;32;37332;-74
2022/06/21 12:29:21;;;;;;;3.60;1.42;;;;;;;28.45;19.53;99415.09;7684447;32;40104;-74
2022/06/21 12:33:39;;;;;;;4.25;1.02;;;;;;;29.11;19.39;99405.31;7684407;32;40548;-74
2022/06/21 12:37:55;;;;;;;1.98;0.95;;;;;;;29.52;19.45;99403.94;7684135;32;37989;-74
2022/06/21 12:42:40;;;;;;;1.87;0.98;;;;;;;29.61;20.81;99404.28;7670592;32;37228;-74
2022/06/21 12:47:17;;;;;;;6.30;1.37;;;;;;;30.01;18.63;99402.06;7684229;32;39283;-75
2022/06/21 12:52:05;;;;;;;0.98;0.82;;;;;;;29.66;20.91;99398.22;7683903;32;40009;-75
2022/06/21 12:56:43;;;;;;;8.70;2.10;;;;;;;29.91;20.54;99386.88;7683873;32;38592;-74
2022/06/21 13:01:05;;;;;;;4.43;0.95;;;;;;;29.16;19.00;99390.87;7683937;32;37110;-74
2022/06/21 13:05:44;;;;;;;1.70;0.82;;;;;;;29.58;19.31;99393.91;7670629;32;39420;-76
2022/06/21 13:10:09;;;;;;;4.57;0.85;;;;;;;29.37;19.91;99394.78;7683648;32;39878;-75
2022/06/21 13:14:32;;;;;;;0.60;0.60;;;;;;;29.40;19.21;99382.75;7676043;32;238991;-74
2022/06/21 13:18:57;;;;;;;0.98;0.70;;;;;;;29.35;20.45;99391.59;7670103;32;37731;-74
2022/06/21 13:23:13;;;;;;;2.97;0.80;;;;;;;29.84;18.75;99384.13;7683581;32;39094;-74
2022/06/21 13:28:09;;;;;;;1.42;0.95;;;;;;;29.00;19.83;99394.13;7683275;32;40691;-74
2022/06/21 13:32:29;;;;;;;1.65;0.80;;;;;;;29.53;18.71;99383.87;7684773;32;37930;-74
2022/06/21 13:36:51;;;;;;;1.55;0.60;;;;;;;29.21;20.01;99393.28;7686498;32;37809;-74
2022/06/21 13:46:29;;;;;;;3.08;0.80;;;;;;;29.89;19.41;99389.28;7686300;32;40742;-74
2022/06/21 13:50:54;;;;;;;1.95;0.90;;;;;;;30.34;18.13;99382.88;7684021;32;37597;-74
2022/06/21 13:55:16;;;;;;;1.92;0.82;;;;;;;30.43;18.68;99390.87;7712318;32;37860;-75
2022/06/21 13:59:47;;;;;;;2.62;0.80;;;;;;;30.44;18.09;99384.00;7698131;32;39806;-75
2022/06/21 14:04:33;;;;;;;4.82;0.90;;;;;;;30.74;17.73;99374.06;7712056;32;40527;-76
2022/06/21 14:09:11;;;;;;;3.28;0.70;;;;;;;30.56;17.74;99371.44;7709702;32;37317;-76
2022/06/21 14:13:41;;;;;;;0.47;0.45;;;;;;;30.40;19.36;99378.41;7711973;32;36747;-76
2022/06/21 14:18:12;;;;;;;2.05;0.70;;;;;;;30.38;18.49;99371.62;7699706;32;39003;-75
2022/06/21 14:22:44;;;;;;;2.28;0.65;;;;;;;30.42;18.20;99369.56;7699403;32;39978;-74
2022/06/21 14:27:08;;;;;;;1.30;0.68;;;;;;;30.45;17.54;99377.19;7699273;32;37956;-74
2022/06/21 14:31:30;;;;;;;0.93;0.65;;;;;;;30.05;19.21;99373.91;7699290;32;37730;-75
2022/06/21 14:35:50;;;;;;;3.67;0.77;;;;;;;29.94;17.31;99366.38;7712345;32;39301;-76
2022/06/21 14:40:29;;;;;;;1.33;0.57;;;;;;;29.88;17.68;99359.59;7698535;32;40922;-75
2022/06/21 14:45:04;;;;;;;2.90;0.77;;;;;;;29.91;19.21;99361.56;7711757;32;37552;-75
2022/06/21 14:49:34;;;;;;;1.37;0.88;;;;;;;30.31;17.11;99362.00;7698879;32;36848;-75
2022/06/21 14:54:14;;;;;;;0.50;0.50;;;;;;;30.42;16.62;99361.13;7711919;32;39391;-76
2022/06/21 14:59:00;;;;;;;1.48;0.68;;;;;;;30.12;16.86;99365.41;7699013;32;39932;-76
2022/06/21 15:04:02;;;;;;;4.15;0.62;;;;;;;30.13;18.22;99356.56;7701343;32;38138;-76
2022/06/21 15:08:58;;;;;;;1.02;0.40;;;;;;;30.17;17.47;99364.97;7712212;32;37033;-75
2022/06/21 15:13:29;;;;;;;2.33;0.60;;;;;;;30.64;17.37;99356.88;7660615;32;40030;-75
2022/06/21 15:17:52;;;;;;;1.43;0.63;;;;;;;30.47;18.15;99377.56;7699148;32;40620;-75
2022/06/21 15:22:28;;;;;;;;;;;;;;;31.04;17.62;99357.22;7711623;32;37998;-75
2022/06/21 15:27:06;;;;;;;4.35;0.90;;;;;;;30.83;17.45;99341.38;7711990;32;37102;-74
2022/06/21 15:31:22;;;;;;;9.35;1.80;;;;;;;30.52;16.99;99348.97;7711716;32;39222;-74
2022/06/21 15:36:11;;;;;;;3.60;1.00;;;;;;;30.07;17.61;99357.44;7710937;32;39858;-75
2022/06/21 15:40:42;;;;;;;1.50;0.70;;;;;;;29.96;18.06;99352.69;7711311;32;37887;-74
2022/06/21 15:45:23;;;;;;;13.90;1.08;;;;;;;30.05;17.54;99348.62;7698766;32;37000;-74
2022/06/21 15:54:29;;;;;;;2.80;0.80;;;;;;;29.37;18.93;99361.09;7710645;32;39701;-75
2022/06/21 15:59:02;;;;;;;4.65;0.77;;;;;;;28.65;20.01;99362.22;7699965;32;38590;-74
2022/06/21 16:03:31;;;;;;;3.97;0.82;;;;;;;29.03;19.28;99361.69;7711578;32;37889;-73
2022/06/21 16:07:52;;;;;;;2.45;0.93;;;;;;;28.62;19.93;99356.62;7711453;32;39085;-75
2022/06/21 16:12:36;;;;;;;8.05;1.70;;;;;;;29.06;18.80;99352.41;7698130;32;39921;-74
2022/06/21 16:17:06;;;;;;;1.83;0.73;;;;;;;28.27;20.30;99352.66;7711370;32;37868;-74
2022/06/21 16:21:34;;;;;;;4.03;1.20;;;;;;;28.27;20.12;99366.69;7698653;32;37013;-74
2022/06/21 16:25:58;;;;;;;0.57;0.57;;;;;;;28.46;20.61;99362.63;7699098;32;40058;-76
2022/06/21 16:30:18;;;;;;;0.73;0.70;;;;;;;28.11;20.97;99383.87;7698309;32;40725;-75
2022/06/21 16:34:56;;;;;;;1.20;0.70;;;;;;;28.27;20.31;99386.28;7711143;32;37617;-75
2022/06/21 16:39:30;;;;;;;2.05;1.10;;;;;;;27.93;20.84;99380.31;7697914;32;37578;-75
2022/06/21 16:43:55;;;;;;;2.83;0.75;;;;;;;28.13;20.80;99380.69;7711167;32;39103;-74
2022/06/21 16:48:22;;;;;;;8.45;1.30;;;;;;;27.68;20.41;99375.44;7697988;32;40015;-74
2022/06/21 16:52:40;;;;;;;2.08;0.90;;;;;;;28.00;21.66;99389.50;7710612;32;37912;-75
2022/06/21 16:56:56;;;;;;;1.42;0.70;;;;;;;27.89;20.93;99388.66;7710749;32;36989;-75
2022/06/21 17:01:19;;;;;;;4.03;1.02;;;;;;;27.51;20.73;99388.19;7710554;32;39331;-75
2022/06/21 17:05:43;;;;;;;6.37;0.98;;;;;;;27.23;21.84;99400.09;7696836;32;40142;-74
2022/06/21 17:10:03;;;;;;;1.48;0.90;;;;;;;27.32;21.76;99394.94;7710594;32;37674;-75
2022/06/21 17:14:21;;;;;;;0.80;0.50;;;;;;;27.30;21.29;99398.16;7710591;32;37025;-76
2022/06/21 17:19:07;;;;;;;11.38;1.00;;;;;;;27.17;21.29;99396.88;7696743;32;39451;-74
2022/06/21 17:24:08;;;;;;;1.48;0.85;;;;;;;27.04;21.91;99402.00;7699001;32;40816;-74
2022/06/21 17:28:52;;;;;;;2.25;0.80;;;;;;;26.93;21.61;99410.34;7675052;32;38424;-74
2022/06/21 17:33:11;;;;;;;3.22;1.10;;;;;;;26.69;21.44;99409.03;7700095;32;37011;-73
2022/06/21 17:37:38;;;;;;;1.40;0.80;;;;;;;26.29;22.95;99395.97;7709718;32;40303;-74
2022/06/21 17:42:25;;;;;;;2.58;0.93;;;;;;;25.81;23.29;99389.13;7696987;32;39650;-74
2022/06/21 17:46:57;;;;;;;1.35;1.10;;;;;;;25.73;23.96;99381.88;7709440;32;38781;-73
2022/06/21 17:51:20;;;;;;;1.73;1.00;;;;;;;25.36;23.46;99385.50;7696835;32;37097;-73
2022/06/21 17:55:46;;;;;;;3.62;0.85;;;;;;;25.15;24.58;99386.03;7695138;32;39324;-74
2022/06/21 18:00:14;;;;;;;1.08;0.82;;;;;;;25.24;24.26;99403.28;7694474;32;39653;-75
2022/06/21 18:04:35;;;;;;;3.53;1.05;;;;;;;24.96;24.72;99417.66;7695529;32;38723;-72
2022/06/21 18:09:06;;;;;;;19.52;2.03;;;;;;;24.86;25.15;99429.47;7698733;32;37881;-76
2022/06/21 18:13:46;;;;;;;4.47;1.20;;;;;;;24.42;26.05;99441.91;7708884;32;39454;-72
2022/06/21 18:18:13;;;;;;;1.17;1.08;;;;;;;24.34;26.41;99454.94;7709333;32;40694;-73
2022/06/21 18:22:57;;;;;;;1.92;1.30;;;;;;;24.19;26.46;99461.44;7699539;32;38049;-75
2022/06/21 18:27:15;;;;;;;2.20;1.60;;;;;;;23.97;27.80;99460.28;7712283;32;37209;-74
2022/06/21 18:31:55;;;;;;;1.95;1.12;;;;;;;23.86;28.25;99457.31;7712712;32;40154;-72
2022/06/21 18:36:45;;;;;;;2.17;0.93;;;;;;;23.73;28.97;99464.16;7712489;32;40777;-74
2022/06/21 18:41:27;;;;;;;3.42;1.58;;;;;;;23.73;28.42;99466.94;7711983;32;37837;-77
2022/06/21 18:46:01;;;;;;;2.83;1.20;;;;;;;23.54;29.02;99471.38;7712516;32;37996;-73
2022/06/21 18:50:26;;;;;;;2.45;1.00;;;;;;;23.31;30.04;99464.94;7711942;32;40062;-71
2022/06/21 18:55:06;;;;;;;5.37;1.30;;;;;;;23.33;30.16;99479.28;7712113;32;39994;-78
2022/06/21 18:59:50;;;;;;;1.27;1.17;;;;;;;23.28;30.07;99482.34;7711643;32;38037;-72
2022/06/21 19:04:25;;;;;;;3.42;1.00;;;;;;;23.12;30.68;99486.00;7712168;32;37013;-71
2022/06/21 19:09:00;;;;;;;1.45;0.98;;;;;;;22.96;30.49;99477.69;7711591;32;39485;-70
2022/06/21 19:13:18;;;;;;;1.10;1.00;;;;;;;22.77;30.57;99486.78;7711901;32;40008;-70
2022/06/21 19:17:56;;;;;;;2.10;1.10;;;;;;;22.59;30.93;99496.66;7698274;32;36843;-71
2022/06/21 19:23:01;;;;;;;5.12;1.00;;;;;;;22.58;30.85;99492.28;7711815;32;37817;-72
2022/06/21 19:27:27;;;;;;;7.22;1.10;;;;;;;22.46;30.75;99502.31;7626000;32;39446;-72
2022/06/21 19:32:13;;;;;;;4.25;1.12;;;;;;;22.34;31.39;99507.16;7643429;32;39885;-71
2022/06/21 19:36:35;;;;;;;3.55;1.10;;;;;;;22.08;31.82;99506.47;7684843;32;37947;-70
2022/06/21 19:41:12;;;;;;;5.90;1.60;;;;;;;21.95;32.22;99510.47;7711132;32;37191;-70
2022/06/21 19:45:46;;;;;;;1.52;1.40;;;;;;;21.90;31.78;99508.78;7699800;32;39182;-70
2022/06/21 19:50:42;;;;;;;1.65;1.55;;;;;;;21.95;32.84;99510.47;7699417;32;39790;-70
2022/06/21 19:55:07;;;;;;;1.62;1.30;;;;;;;21.57;33.40;99523.69;7627981;32;38741;-70
2022/06/21 19:59:27;;;;;;;3.33;1.30;;;;;;;21.70;33.01;99516.16;7676166;32;37679;-71
2022/06/21 20:04:08;;;;;;;1.83;1.20;;;;;;;21.41;33.27;99516.47;7711230;32;39988;-71
2022/06/21 20:08:31;;;;;;;2.80;1.10;;;;;;;21.30;33.52;99510.59;7710911;32;39964;-71
2022/06/21 20:13:01;;;;;;;1.05;1.02;;;;;;;21.31;33.43;99509.44;7711479;32;37542;-71
2022/06/21 20:17:22;;;;;;;4.60;1.40;;;;;;;21.08;33.76;99509.16;7698594;32;37466;-70
2022/06/21 20:22:10;;;;;;;1.70;1.10;;;;;;;21.13;33.76;99508.91;7711280;32;39879;-71
2022/06/21 20:26:32;;;;;;;8.73;2.20;;;;;;;21.11;33.85;99502.88;7710712;32;40254;-71
2022/06/21 20:31:00;;;;;;;4.33;1.60;;;;;;;20.87;34.37;99510.09;7711042;32;38653;-71
2022/06/21 20:35:22;;;;;;;2.50;1.15;;;;;;;21.00;34.03;99488.72;7697511;32;37103;-71
2022/06/21 20:40:00;;;;;;;2.97;1.20;;;;;;;20.91;34.16;99505.47;7697644;32;39139;-71
2022/06/21 20:44:26;;;;;;;2.35;1.27;;;;;;;20.94;34.45;99499.25;7710298;32;39647;-71
2022/06/21 20:48:46;;;;;;;1.55;1.30;;;;;;;21.08;33.97;99498.06;7697261;32;38003;-71
2022/06/21 20:53:19;;;;;;;1.67;1.40;;;;;;;20.92;34.49;99498.78;7710660;32;36795;-70
2022/06/21 20:57:59;;;;;;;1.40;1.30;;;;;;;20.73;34.93;99504.09;7699409;32;39328;-70
2022/06/21 21:02:29;;;;;;;1.20;1.08;;;;;;;20.74;34.93;99498.22;7685318;32;40102;-72
2022/06/21 21:06:46;;;;;;;1.30;1.20;;;;;;;20.63;34.84;99494.31;7691489;32;38679;-71
2022/06/21 21:11:13;;;;;;;1.73;1.40;;;;;;;20.57;35.03;99482.59;7709741;32;37126;-71
2022/06/21 21:15:45;;;;;;;1.70;1.25;;;;;;;20.47;35.18;99485.84;7671115;32;39201;-71
2022/06/21 21:20:29;;;;;;;2.75;1.30;;;;;;;20.63;34.70;99492.34;7683442;32;40817;-70
2022/06/21 21:24:51;;;;;;;3.80;1.40;;;;;;;20.54;34.75;99511.00;7672019;32;37971;-70
2022/06/21 21:29:08;;;;;;;1.48;1.23;;;;;;;20.32;36.42;99503.16;7701146;32;37782;-71